sensor_id;sensor_type;location;lat;lon;timestamp;temperature;humidity
8565;DHT22;4320;51.498;6.556;2023-05-07T00:01:35;17.20;99.90
8565;DHT22;4320;51.498;6.556;2023-05-07T00:04:01;17.20;99.90
8565;DHT22;4320;51.498;6.556;2023-05-07T00:06:27;17.20;99.90
8565;DHT22;4320;51.498;6.556;2023-05-07T00:08:54;17.20;99.90
8565;DHT22;4320;51.498;6.556;2023-05-07T00:11:20;17.10;99.90
8565;DHT22;4320;51.498;6.556;2023-05-07T00:13:46;17.00;99.90
8565;DHT22;4320;51.498;6.556;2023-05-07T00:16:12;17.00;99.90
8565;DHT22;4320;51.498;6.556;2023-05-07T00:18:37;17.00;99.90
8565;DHT22;4320;51.498;6.556;2023-05-07T00:21:03;17.00;99.90
8565;DHT22;4320;51.498;6.556;2023-05-07T00:23:28;17.00;99.90
8565;DHT22;4320;51.498;6.556;2023-05-07T00:25:54;17.00;99.90
8565;DHT22;4320;51.498;6.556;2023-05-07T00:28:20;17.00;99.90
8565;DHT22;4320;51.498;6.556;2023-05-07T00:30:45;17.00;99.90
8565;DHT22;4320;51.498;6.556;2023-05-07T00:33:11;17.00;99.90
8565;DHT22;4320;51.498;6.556;2023-05-07T00:35:36;16.90;99.90
8565;DHT22;4320;51.498;6.556;2023-05-07T00:38:02;16.90;99.90
8565;DHT22;4320;51.498;6.556;2023-05-07T00:40:28;16.80;99.90
8565;DHT22;4320;51.498;6.556;2023-05-07T00:42:53;16.80;99.90
8565;DHT22;4320;51.498;6.556;2023-05-07T00:45:26;16.80;99.90
8565;DHT22;4320;51.498;6.556;2023-05-07T00:47:57;16.80;99.90
8565;DHT22;4320;51.498;6.556;2023-05-07T00:50:25;16.80;99.90
8565;DHT22;4320;51.498;6.556;2023-05-07T00:52:51;16.80;99.90
8565;DHT22;4320;51.498;6.556;2023-05-07T00:55:18;16.80;99.90
8565;DHT22;4320;51.498;6.556;2023-05-07T00:57:44;16.70;99.90
8565;DHT22;4320;51.498;6.556;2023-05-07T01:00:10;16.80;99.90
8565;DHT22;4320;51.498;6.556;2023-05-07T01:02:41;16.70;99.90
8565;DHT22;4320;51.498;6.556;2023-05-07T01:05:09;16.60;99.90
8565;DHT22;4320;51.498;6.556;2023-05-07T01:07:37;16.60;99.90
8565;DHT22;4320;51.498;6.556;2023-05-07T01:10:05;16.50;99.90
8565;DHT22;4320;51.498;6.556;2023-05-07T01:12:31;16.50;99.90
8565;DHT22;4320;51.498;6.556;2023-05-07T01:14:58;16.50;99.90
8565;DHT22;4320;51.498;6.556;2023-05-07T01:17:24;16.50;99.90
8565;DHT22;4320;51.498;6.556;2023-05-07T01:19:49;16.50;99.90
8565;DHT22;4320;51.498;6.556;2023-05-07T01:22:35;16.40;99.90
8565;DHT22;4320;51.498;6.556;2023-05-07T01:25:07;16.50;99.90
8565;DHT22;4320;51.498;6.556;2023-05-07T01:27:33;16.50;99.90
8565;DHT22;4320;51.498;6.556;2023-05-07T01:30:00;16.50;99.90
8565;DHT22;4320;51.498;6.556;2023-05-07T01:32:33;16.50;99.90
8565;DHT22;4320;51.498;6.556;2023-05-07T01:35:02;16.50;99.90
8565;DHT22;4320;51.498;6.556;2023-05-07T01:37:30;16.50;99.90
8565;DHT22;4320;51.498;6.556;2023-05-07T01:39:56;16.40;99.90
8565;DHT22;4320;51.498;6.556;2023-05-07T01:42:22;16.50;99.90
8565;DHT22;4320;51.498;6.556;2023-05-07T01:44:48;16.50;99.90
8565;DHT22;4320;51.498;6.556;2023-05-07T01:47:14;16.50;99.90
8565;DHT22;4320;51.498;6.556;2023-05-07T01:49:41;16.40;99.90
8565;DHT22;4320;51.498;6.556;2023-05-07T01:52:07;16.40;99.90
8565;DHT22;4320;51.498;6.556;2023-05-07T01:54:33;16.40;99.90
8565;DHT22;4320;51.498;6.556;2023-05-07T01:56:59;16.50;99.90
8565;DHT22;4320;51.498;6.556;2023-05-07T01:59:25;16.50;99.90
8565;DHT22;4320;51.498;6.556;2023-05-07T02:01:51;16.50;99.90
8565;DHT22;4320;51.498;6.556;2023-05-07T02:04:17;16.50;99.90
8565;DHT22;4320;51.498;6.556;2023-05-07T02:06:43;16.50;99.90
8565;DHT22;4320;51.498;6.556;2023-05-07T02:09:08;16.50;99.90
8565;DHT22;4320;51.498;6.556;2023-05-07T02:11:34;16.50;99.90
8565;DHT22;4320;51.498;6.556;2023-05-07T02:14:00;16.50;99.90
8565;DHT22;4320;51.498;6.556;2023-05-07T02:16:26;16.50;99.90
8565;DHT22;4320;51.498;6.556;2023-05-07T02:18:51;16.40;99.90
8565;DHT22;4320;51.498;6.556;2023-05-07T02:21:17;16.50;99.90
8565;DHT22;4320;51.498;6.556;2023-05-07T02:23:43;16.40;99.90
8565;DHT22;4320;51.498;6.556;2023-05-07T02:26:08;16.50;99.90
8565;DHT22;4320;51.498;6.556;2023-05-07T02:28:34;16.40;99.90
8565;DHT22;4320;51.498;6.556;2023-05-07T02:31:03;16.40;99.90
8565;DHT22;4320;51.498;6.556;2023-05-07T02:33:29;16.30;99.90
8565;DHT22;4320;51.498;6.556;2023-05-07T02:35:56;16.30;99.90
8565;DHT22;4320;51.498;6.556;2023-05-07T02:38:22;16.20;99.90
8565;DHT22;4320;51.498;6.556;2023-05-07T02:40:48;16.20;99.90
8565;DHT22;4320;51.498;6.556;2023-05-07T02:43:13;16.20;99.90
8565;DHT22;4320;51.498;6.556;2023-05-07T02:45:39;16.10;99.90
8565;DHT22;4320;51.498;6.556;2023-05-07T02:48:05;16.10;99.90
8565;DHT22;4320;51.498;6.556;2023-05-07T02:50:31;16.10;99.90
8565;DHT22;4320;51.498;6.556;2023-05-07T02:52:58;16.10;99.90
8565;DHT22;4320;51.498;6.556;2023-05-07T02:55:23;16.10;99.90
8565;DHT22;4320;51.498;6.556;2023-05-07T02:57:49;16.10;99.90
8565;DHT22;4320;51.498;6.556;2023-05-07T03:00:17;16.10;99.90
8565;DHT22;4320;51.498;6.556;2023-05-07T03:02:44;16.20;99.90
8565;DHT22;4320;51.498;6.556;2023-05-07T03:05:10;16.10;99.90
8565;DHT22;4320;51.498;6.556;2023-05-07T03:07:36;16.10;99.90
8565;DHT22;4320;51.498;6.556;2023-05-07T03:10:02;16.10;99.90
8565;DHT22;4320;51.498;6.556;2023-05-07T03:12:29;16.20;99.90
8565;DHT22;4320;51.498;6.556;2023-05-07T03:14:55;16.20;99.90
8565;DHT22;4320;51.498;6.556;2023-05-07T03:17:21;16.20;99.90
8565;DHT22;4320;51.498;6.556;2023-05-07T03:19:46;16.10;99.90
8565;DHT22;4320;51.498;6.556;2023-05-07T03:22:12;16.00;99.90
8565;DHT22;4320;51.498;6.556;2023-05-07T03:24:38;16.00;99.90
8565;DHT22;4320;51.498;6.556;2023-05-07T03:27:03;15.90;99.90
8565;DHT22;4320;51.498;6.556;2023-05-07T03:29:29;15.90;99.90
8565;DHT22;4320;51.498;6.556;2023-05-07T03:31:55;15.90;99.90
8565;DHT22;4320;51.498;6.556;2023-05-07T03:34:20;15.90;99.90
8565;DHT22;4320;51.498;6.556;2023-05-07T03:36:50;15.90;99.90
8565;DHT22;4320;51.498;6.556;2023-05-07T03:39:15;15.90;99.90
8565;DHT22;4320;51.498;6.556;2023-05-07T03:41:41;15.90;99.90
8565;DHT22;4320;51.498;6.556;2023-05-07T03:44:07;15.90;99.90
8565;DHT22;4320;51.498;6.556;2023-05-07T03:46:33;16.00;99.90
8565;DHT22;4320;51.498;6.556;2023-05-07T03:48:58;16.00;99.90
8565;DHT22;4320;51.498;6.556;2023-05-07T03:51:24;16.10;99.90
8565;DHT22;4320;51.498;6.556;2023-05-07T03:53:52;16.10;99.90
8565;DHT22;4320;51.498;6.556;2023-05-07T03:56:22;16.20;99.90
8565;DHT22;4320;51.498;6.556;2023-05-07T03:58:52;16.10;99.90
8565;DHT22;4320;51.498;6.556;2023-05-07T04:01:17;16.10;99.90
8565;DHT22;4320;51.498;6.556;2023-05-07T04:03:43;16.10;99.90
8565;DHT22;4320;51.498;6.556;2023-05-07T04:06:08;16.00;99.90
8565;DHT22;4320;51.498;6.556;2023-05-07T04:08:34;16.00;99.90
8565;DHT22;4320;51.498;6.556;2023-05-07T04:11:00;15.90;99.90
8565;DHT22;4320;51.498;6.556;2023-05-07T04:13:25;15.90;99.90
8565;DHT22;4320;51.498;6.556;2023-05-07T04:15:52;15.80;99.90
8565;DHT22;4320;51.498;6.556;2023-05-07T04:18:18;15.80;99.90
8565;DHT22;4320;51.498;6.556;2023-05-07T04:20:44;15.80;99.90
8565;DHT22;4320;51.498;6.556;2023-05-07T04:23:09;15.80;99.90
8565;DHT22;4320;51.498;6.556;2023-05-07T04:25:35;15.80;99.90
8565;DHT22;4320;51.498;6.556;2023-05-07T04:28:01;15.90;99.90
8565;DHT22;4320;51.498;6.556;2023-05-07T04:30:26;15.80;99.90
8565;DHT22;4320;51.498;6.556;2023-05-07T04:32:52;15.80;99.90
8565;DHT22;4320;51.498;6.556;2023-05-07T04:35:18;15.80;99.90
8565;DHT22;4320;51.498;6.556;2023-05-07T04:37:44;15.80;99.90
8565;DHT22;4320;51.498;6.556;2023-05-07T04:40:10;15.80;99.90
8565;DHT22;4320;51.498;6.556;2023-05-07T04:42:35;15.80;99.90
8565;DHT22;4320;51.498;6.556;2023-05-07T04:45:02;15.80;99.90
8565;DHT22;4320;51.498;6.556;2023-05-07T04:47:27;15.80;99.90
8565;DHT22;4320;51.498;6.556;2023-05-07T04:49:53;15.80;99.90
8565;DHT22;4320;51.498;6.556;2023-05-07T04:52:19;15.80;99.90
8565;DHT22;4320;51.498;6.556;2023-05-07T04:54:44;15.90;99.90
8565;DHT22;4320;51.498;6.556;2023-05-07T04:57:13;15.90;99.90
8565;DHT22;4320;51.498;6.556;2023-05-07T04:59:38;15.80;99.90
8565;DHT22;4320;51.498;6.556;2023-05-07T05:02:04;15.80;99.90
8565;DHT22;4320;51.498;6.556;2023-05-07T05:04:30;15.80;99.90
8565;DHT22;4320;51.498;6.556;2023-05-07T05:06:55;15.90;99.90
8565;DHT22;4320;51.498;6.556;2023-05-07T05:09:21;16.00;99.90
8565;DHT22;4320;51.498;6.556;2023-05-07T05:11:47;16.10;99.90
8565;DHT22;4320;51.498;6.556;2023-05-07T05:14:13;16.20;99.90
8565;DHT22;4320;51.498;6.556;2023-05-07T05:16:38;16.20;99.90
8565;DHT22;4320;51.498;6.556;2023-05-07T05:19:04;16.40;99.90
8565;DHT22;4320;51.498;6.556;2023-05-07T05:21:30;16.80;99.90
8565;DHT22;4320;51.498;6.556;2023-05-07T05:23:56;17.50;99.90
8565;DHT22;4320;51.498;6.556;2023-05-07T05:26:21;18.10;99.90
8565;DHT22;4320;51.498;6.556;2023-05-07T05:28:47;18.60;99.90
8565;DHT22;4320;51.498;6.556;2023-05-07T05:31:13;18.90;99.90
8565;DHT22;4320;51.498;6.556;2023-05-07T05:33:39;18.70;99.90
8565;DHT22;4320;51.498;6.556;2023-05-07T05:36:05;18.60;99.90
8565;DHT22;4320;51.498;6.556;2023-05-07T05:38:31;18.80;99.90
8565;DHT22;4320;51.498;6.556;2023-05-07T05:40:57;18.70;99.90
8565;DHT22;4320;51.498;6.556;2023-05-07T05:43:22;18.40;99.90
8565;DHT22;4320;51.498;6.556;2023-05-07T05:45:48;18.40;99.90
8565;DHT22;4320;51.498;6.556;2023-05-07T05:48:14;18.30;99.90
8565;DHT22;4320;51.498;6.556;2023-05-07T05:50:39;18.50;99.90
8565;DHT22;4320;51.498;6.556;2023-05-07T05:53:05;18.90;99.90
8565;DHT22;4320;51.498;6.556;2023-05-07T05:55:31;19.10;99.90
8565;DHT22;4320;51.498;6.556;2023-05-07T05:57:58;19.20;99.90
8565;DHT22;4320;51.498;6.556;2023-05-07T06:00:24;19.20;99.90
8565;DHT22;4320;51.498;6.556;2023-05-07T06:02:49;19.30;99.90
8565;DHT22;4320;51.498;6.556;2023-05-07T06:05:15;19.60;99.90
8565;DHT22;4320;51.498;6.556;2023-05-07T06:07:41;20.10;99.90
8565;DHT22;4320;51.498;6.556;2023-05-07T06:10:07;20.30;99.90
8565;DHT22;4320;51.498;6.556;2023-05-07T06:12:33;20.20;99.90
8565;DHT22;4320;51.498;6.556;2023-05-07T06:14:58;20.00;99.90
8565;DHT22;4320;51.498;6.556;2023-05-07T06:17:24;19.60;99.90
8565;DHT22;4320;51.498;6.556;2023-05-07T06:19:49;19.30;99.90
8565;DHT22;4320;51.498;6.556;2023-05-07T06:22:15;19.00;99.90
8565;DHT22;4320;51.498;6.556;2023-05-07T06:24:41;18.90;99.90
8565;DHT22;4320;51.498;6.556;2023-05-07T06:27:06;18.70;99.90
8565;DHT22;4320;51.498;6.556;2023-05-07T06:29:32;18.60;99.90
8565;DHT22;4320;51.498;6.556;2023-05-07T06:32:11;18.50;99.90
8565;DHT22;4320;51.498;6.556;2023-05-07T06:34:37;18.40;99.90
8565;DHT22;4320;51.498;6.556;2023-05-07T06:37:03;18.40;99.90
8565;DHT22;4320;51.498;6.556;2023-05-07T06:39:29;18.50;99.90
8565;DHT22;4320;51.498;6.556;2023-05-07T06:41:55;18.60;99.90
8565;DHT22;4320;51.498;6.556;2023-05-07T06:44:20;18.80;99.90
8565;DHT22;4320;51.498;6.556;2023-05-07T06:46:46;18.80;99.90
8565;DHT22;4320;51.498;6.556;2023-05-07T06:49:13;18.80;99.90
8565;DHT22;4320;51.498;6.556;2023-05-07T06:51:42;18.70;99.90
8565;DHT22;4320;51.498;6.556;2023-05-07T06:54:07;18.60;99.90
8565;DHT22;4320;51.498;6.556;2023-05-07T06:56:33;18.60;99.90
8565;DHT22;4320;51.498;6.556;2023-05-07T06:59:00;18.60;99.90
8565;DHT22;4320;51.498;6.556;2023-05-07T07:01:26;18.60;99.90
8565;DHT22;4320;51.498;6.556;2023-05-07T07:03:52;18.70;99.90
8565;DHT22;4320;51.498;6.556;2023-05-07T07:06:17;18.70;99.90
8565;DHT22;4320;51.498;6.556;2023-05-07T07:08:43;18.70;99.90
8565;DHT22;4320;51.498;6.556;2023-05-07T07:11:10;18.80;99.90
8565;DHT22;4320;51.498;6.556;2023-05-07T07:13:36;18.80;99.90
8565;DHT22;4320;51.498;6.556;2023-05-07T07:16:02;18.80;99.90
8565;DHT22;4320;51.498;6.556;2023-05-07T07:18:28;18.90;99.90
8565;DHT22;4320;51.498;6.556;2023-05-07T07:20:54;18.90;99.90
8565;DHT22;4320;51.498;6.556;2023-05-07T07:23:20;19.10;99.90
8565;DHT22;4320;51.498;6.556;2023-05-07T07:25:46;19.30;99.90
8565;DHT22;4320;51.498;6.556;2023-05-07T07:28:11;19.50;99.90
8565;DHT22;4320;51.498;6.556;2023-05-07T07:30:38;19.70;99.90
8565;DHT22;4320;51.498;6.556;2023-05-07T07:33:03;19.90;99.90
8565;DHT22;4320;51.498;6.556;2023-05-07T07:35:29;20.00;99.90
8565;DHT22;4320;51.498;6.556;2023-05-07T07:37:55;20.30;99.90
8565;DHT22;4320;51.498;6.556;2023-05-07T07:40:21;20.40;99.90
8565;DHT22;4320;51.498;6.556;2023-05-07T07:42:47;20.20;99.90
8565;DHT22;4320;51.498;6.556;2023-05-07T07:45:12;20.30;99.90
8565;DHT22;4320;51.498;6.556;2023-05-07T07:47:41;20.90;99.90
8565;DHT22;4320;51.498;6.556;2023-05-07T07:50:07;21.30;99.90
8565;DHT22;4320;51.498;6.556;2023-05-07T07:52:34;21.30;99.90
8565;DHT22;4320;51.498;6.556;2023-05-07T07:54:59;21.20;99.90
8565;DHT22;4320;51.498;6.556;2023-05-07T07:57:25;21.00;99.90
8565;DHT22;4320;51.498;6.556;2023-05-07T07:59:51;20.90;99.90
8565;DHT22;4320;51.498;6.556;2023-05-07T08:02:17;20.80;99.90
8565;DHT22;4320;51.498;6.556;2023-05-07T08:04:42;20.70;99.90
8565;DHT22;4320;51.498;6.556;2023-05-07T08:07:11;20.60;99.90
8565;DHT22;4320;51.498;6.556;2023-05-07T08:09:38;20.40;99.90
8565;DHT22;4320;51.498;6.556;2023-05-07T08:12:04;20.40;99.90
8565;DHT22;4320;51.498;6.556;2023-05-07T08:14:30;20.30;99.90
8565;DHT22;4320;51.498;6.556;2023-05-07T08:16:56;20.30;99.90
8565;DHT22;4320;51.498;6.556;2023-05-07T08:19:21;20.30;99.90
8565;DHT22;4320;51.498;6.556;2023-05-07T08:21:47;20.40;99.90
8565;DHT22;4320;51.498;6.556;2023-05-07T08:24:14;20.40;99.90
8565;DHT22;4320;51.498;6.556;2023-05-07T08:26:40;20.70;99.90
8565;DHT22;4320;51.498;6.556;2023-05-07T08:29:06;20.80;99.90
8565;DHT22;4320;51.498;6.556;2023-05-07T08:31:32;20.90;99.90
8565;DHT22;4320;51.498;6.556;2023-05-07T08:33:58;21.30;99.90
8565;DHT22;4320;51.498;6.556;2023-05-07T08:36:24;21.70;99.90
8565;DHT22;4320;51.498;6.556;2023-05-07T08:38:51;21.80;99.90
8565;DHT22;4320;51.498;6.556;2023-05-07T08:41:16;22.20;98.40
8565;DHT22;4320;51.498;6.556;2023-05-07T08:43:49;22.50;93.80
8565;DHT22;4320;51.498;6.556;2023-05-07T08:46:22;22.90;83.50
8565;DHT22;4320;51.498;6.556;2023-05-07T08:48:48;23.00;69.20
8565;DHT22;4320;51.498;6.556;2023-05-07T08:51:20;23.20;66.80
8565;DHT22;4320;51.498;6.556;2023-05-07T08:53:47;23.30;53.40
8565;DHT22;4320;51.498;6.556;2023-05-07T08:56:17;23.30;49.90
8565;DHT22;4320;51.498;6.556;2023-05-07T08:58:43;23.30;36.40
8565;DHT22;4320;51.498;6.556;2023-05-07T09:01:13;23.40;30.00
8565;DHT22;4320;51.498;6.556;2023-05-07T09:03:39;23.60;28.90
8565;DHT22;4320;51.498;6.556;2023-05-07T09:06:05;23.50;25.00
8565;DHT22;4320;51.498;6.556;2023-05-07T09:08:33;23.60;23.30
8565;DHT22;4320;51.498;6.556;2023-05-07T09:10:58;23.40;19.00
8565;DHT22;4320;51.498;6.556;2023-05-07T09:13:24;23.20;14.50
8565;DHT22;4320;51.498;6.556;2023-05-07T09:15:50;23.00;14.60
8565;DHT22;4320;51.498;6.556;2023-05-07T09:18:16;22.80;14.90
8565;DHT22;4320;51.498;6.556;2023-05-07T09:20:41;22.80;19.30
8565;DHT22;4320;51.498;6.556;2023-05-07T09:23:07;23.00;22.80
8565;DHT22;4320;51.498;6.556;2023-05-07T09:25:35;23.30;24.30
8565;DHT22;4320;51.498;6.556;2023-05-07T09:28:02;23.60;27.60
8565;DHT22;4320;51.498;6.556;2023-05-07T09:30:31;23.70;24.00
8565;DHT22;4320;51.498;6.556;2023-05-07T09:33:01;23.80;20.50
8565;DHT22;4320;51.498;6.556;2023-05-07T09:35:27;23.90;25.00
8565;DHT22;4320;51.498;6.556;2023-05-07T09:37:58;24.10;19.30
8565;DHT22;4320;51.498;6.556;2023-05-07T09:40:29;24.20;18.80
8565;DHT22;4320;51.498;6.556;2023-05-07T09:42:55;24.10;16.70
8565;DHT22;4320;51.498;6.556;2023-05-07T09:45:22;24.20;16.30
8565;DHT22;4320;51.498;6.556;2023-05-07T09:47:49;24.20;13.60
8565;DHT22;4320;51.498;6.556;2023-05-07T09:50:19;24.20;8.60
8565;DHT22;4320;51.498;6.556;2023-05-07T09:52:46;24.40;7.90
8565;DHT22;4320;51.498;6.556;2023-05-07T09:55:13;24.10;7.40
8565;DHT22;4320;51.498;6.556;2023-05-07T09:57:40;24.10;7.30
8565;DHT22;4320;51.498;6.556;2023-05-07T10:00:07;24.20;7.30
8565;DHT22;4320;51.498;6.556;2023-05-07T10:02:35;24.20;7.30
8565;DHT22;4320;51.498;6.556;2023-05-07T10:05:02;24.20;7.40
8565;DHT22;4320;51.498;6.556;2023-05-07T10:07:29;24.30;7.40
8565;DHT22;4320;51.498;6.556;2023-05-07T10:09:55;24.40;7.50
8565;DHT22;4320;51.498;6.556;2023-05-07T10:12:23;24.40;7.50
8565;DHT22;4320;51.498;6.556;2023-05-07T10:14:50;24.40;7.50
8565;DHT22;4320;51.498;6.556;2023-05-07T10:17:17;24.50;7.50
8565;DHT22;4320;51.498;6.556;2023-05-07T10:19:44;24.50;7.50
8565;DHT22;4320;51.498;6.556;2023-05-07T10:22:11;24.30;10.70
8565;DHT22;4320;51.498;6.556;2023-05-07T10:24:38;24.20;7.30
8565;DHT22;4320;51.498;6.556;2023-05-07T10:27:10;24.00;5.90
8565;DHT22;4320;51.498;6.556;2023-05-07T10:29:53;24.00;7.20
8565;DHT22;4320;51.498;6.556;2023-05-07T10:32:44;24.20;7.30
8565;DHT22;4320;51.498;6.556;2023-05-07T10:35:24;24.40;7.50
8565;DHT22;4320;51.498;6.556;2023-05-07T10:37:51;24.40;7.40
8565;DHT22;4320;51.498;6.556;2023-05-07T10:40:17;24.60;7.70
8565;DHT22;4320;51.498;6.556;2023-05-07T10:42:59;24.50;1.40
8565;DHT22;4320;51.498;6.556;2023-05-07T10:45:26;24.50;1.00
8565;DHT22;4320;51.498;6.556;2023-05-07T10:48:18;24.60;1.00
8565;DHT22;4320;51.498;6.556;2023-05-07T10:50:44;24.50;1.00
8565;DHT22;4320;51.498;6.556;2023-05-07T10:55:51;24.80;1.00
8565;DHT22;4320;51.498;6.556;2023-05-07T10:58:24;24.70;1.00
8565;DHT22;4320;51.498;6.556;2023-05-07T11:00:59;24.90;2.70
8565;DHT22;4320;51.498;6.556;2023-05-07T11:03:25;24.90;1.00
8565;DHT22;4320;51.498;6.556;2023-05-07T11:06:16;24.80;1.00
8565;DHT22;4320;51.498;6.556;2023-05-07T11:09:00;24.80;1.00
8565;DHT22;4320;51.498;6.556;2023-05-07T11:11:45;25.00;1.00
8565;DHT22;4320;51.498;6.556;2023-05-07T11:14:42;25.00;1.00
8565;DHT22;4320;51.498;6.556;2023-05-07T11:17:09;24.90;1.00
8565;DHT22;4320;51.498;6.556;2023-05-07T11:19:57;24.80;1.00
8565;DHT22;4320;51.498;6.556;2023-05-07T11:25:04;24.70;1.00
8565;DHT22;4320;51.498;6.556;2023-05-07T11:27:32;24.60;1.00
8565;DHT22;4320;51.498;6.556;2023-05-07T11:29:58;24.50;1.00
8565;DHT22;4320;51.498;6.556;2023-05-07T11:32:28;24.70;1.00
8565;DHT22;4320;51.498;6.556;2023-05-07T11:34:55;24.90;1.00
8565;DHT22;4320;51.498;6.556;2023-05-07T11:37:22;25.10;1.00
8565;DHT22;4320;51.498;6.556;2023-05-07T11:39:48;25.10;1.00
8565;DHT22;4320;51.498;6.556;2023-05-07T11:42:32;24.90;1.00
8565;DHT22;4320;51.498;6.556;2023-05-07T11:44:58;24.80;1.00
8565;DHT22;4320;51.498;6.556;2023-05-07T11:47:24;24.80;1.00
8565;DHT22;4320;51.498;6.556;2023-05-07T11:49:52;24.70;1.00
8565;DHT22;4320;51.498;6.556;2023-05-07T11:52:19;24.60;1.00
8565;DHT22;4320;51.498;6.556;2023-05-07T11:54:52;24.50;1.00
8565;DHT22;4320;51.498;6.556;2023-05-07T11:57:18;24.50;1.00
8565;DHT22;4320;51.498;6.556;2023-05-07T11:59:44;24.30;1.00
8565;DHT22;4320;51.498;6.556;2023-05-07T12:02:10;24.20;1.00
8565;DHT22;4320;51.498;6.556;2023-05-07T12:04:37;24.30;1.00
8565;DHT22;4320;51.498;6.556;2023-05-07T12:07:03;24.30;1.00
8565;DHT22;4320;51.498;6.556;2023-05-07T12:09:29;24.20;1.00
8565;DHT22;4320;51.498;6.556;2023-05-07T12:11:55;24.10;1.00
8565;DHT22;4320;51.498;6.556;2023-05-07T12:14:21;24.10;1.00
8565;DHT22;4320;51.498;6.556;2023-05-07T12:16:47;24.00;1.00
8565;DHT22;4320;51.498;6.556;2023-05-07T12:19:13;23.90;1.00
8565;DHT22;4320;51.498;6.556;2023-05-07T12:21:40;23.80;1.00
8565;DHT22;4320;51.498;6.556;2023-05-07T12:24:06;23.80;1.00
8565;DHT22;4320;51.498;6.556;2023-05-07T12:26:31;23.80;1.00
8565;DHT22;4320;51.498;6.556;2023-05-07T12:28:57;23.70;1.00
8565;DHT22;4320;51.498;6.556;2023-05-07T12:31:25;23.80;1.00
8565;DHT22;4320;51.498;6.556;2023-05-07T12:33:51;23.80;1.00
8565;DHT22;4320;51.498;6.556;2023-05-07T12:36:17;24.00;1.00
8565;DHT22;4320;51.498;6.556;2023-05-07T12:38:42;24.00;1.00
8565;DHT22;4320;51.498;6.556;2023-05-07T12:41:09;23.90;1.00
8565;DHT22;4320;51.498;6.556;2023-05-07T12:43:35;23.90;1.00
8565;DHT22;4320;51.498;6.556;2023-05-07T12:46:05;23.90;1.00
8565;DHT22;4320;51.498;6.556;2023-05-07T12:48:31;23.90;1.00
8565;DHT22;4320;51.498;6.556;2023-05-07T12:50:59;23.90;1.00
8565;DHT22;4320;51.498;6.556;2023-05-07T12:53:26;24.00;1.00
8565;DHT22;4320;51.498;6.556;2023-05-07T12:55:54;24.00;1.00
8565;DHT22;4320;51.498;6.556;2023-05-07T12:58:25;24.00;1.00
8565;DHT22;4320;51.498;6.556;2023-05-07T13:00:52;24.00;1.00
8565;DHT22;4320;51.498;6.556;2023-05-07T13:03:31;24.00;1.00
8565;DHT22;4320;51.498;6.556;2023-05-07T13:05:59;24.10;1.00
8565;DHT22;4320;51.498;6.556;2023-05-07T13:08:26;24.00;1.00
8565;DHT22;4320;51.498;6.556;2023-05-07T13:10:52;24.00;1.00
8565;DHT22;4320;51.498;6.556;2023-05-07T13:13:18;24.00;1.00
8565;DHT22;4320;51.498;6.556;2023-05-07T13:15:45;23.90;1.00
8565;DHT22;4320;51.498;6.556;2023-05-07T13:18:11;23.90;1.00
8565;DHT22;4320;51.498;6.556;2023-05-07T13:20:36;23.80;1.00
8565;DHT22;4320;51.498;6.556;2023-05-07T13:23:02;23.70;1.00
8565;DHT22;4320;51.498;6.556;2023-05-07T13:25:30;23.60;1.00
8565;DHT22;4320;51.498;6.556;2023-05-07T13:27:56;23.50;1.00
8565;DHT22;4320;51.498;6.556;2023-05-07T13:30:22;23.40;1.00
8565;DHT22;4320;51.498;6.556;2023-05-07T13:32:48;23.30;1.00
8565;DHT22;4320;51.498;6.556;2023-05-07T13:35:14;23.20;1.00
8565;DHT22;4320;51.498;6.556;2023-05-07T13:37:40;23.10;1.00
8565;DHT22;4320;51.498;6.556;2023-05-07T13:40:07;23.00;1.00
8565;DHT22;4320;51.498;6.556;2023-05-07T13:42:33;23.00;1.00
8565;DHT22;4320;51.498;6.556;2023-05-07T13:44:58;23.10;1.00
8565;DHT22;4320;51.498;6.556;2023-05-07T13:47:24;23.00;1.00
8565;DHT22;4320;51.498;6.556;2023-05-07T13:49:50;22.90;1.00
8565;DHT22;4320;51.498;6.556;2023-05-07T13:52:16;22.90;1.00
8565;DHT22;4320;51.498;6.556;2023-05-07T13:54:42;22.80;1.00
8565;DHT22;4320;51.498;6.556;2023-05-07T13:57:07;22.80;1.00
8565;DHT22;4320;51.498;6.556;2023-05-07T13:59:33;22.80;1.00
8565;DHT22;4320;51.498;6.556;2023-05-07T14:01:59;22.80;1.00
8565;DHT22;4320;51.498;6.556;2023-05-07T14:04:25;22.90;1.00
8565;DHT22;4320;51.498;6.556;2023-05-07T14:06:51;22.90;1.00
8565;DHT22;4320;51.498;6.556;2023-05-07T14:09:16;22.90;1.00
8565;DHT22;4320;51.498;6.556;2023-05-07T14:11:42;22.90;1.00
8565;DHT22;4320;51.498;6.556;2023-05-07T14:14:08;22.90;1.00
8565;DHT22;4320;51.498;6.556;2023-05-07T14:16:36;22.80;1.00
8565;DHT22;4320;51.498;6.556;2023-05-07T14:19:02;22.80;1.00
8565;DHT22;4320;51.498;6.556;2023-05-07T14:21:27;22.80;2.60
8565;DHT22;4320;51.498;6.556;2023-05-07T14:23:53;22.80;5.30
8565;DHT22;4320;51.498;6.556;2023-05-07T14:26:20;22.80;4.90
8565;DHT22;4320;51.498;6.556;2023-05-07T14:28:46;22.80;6.30
8565;DHT22;4320;51.498;6.556;2023-05-07T14:31:12;22.80;6.50
8565;DHT22;4320;51.498;6.556;2023-05-07T14:33:38;22.90;6.40
8565;DHT22;4320;51.498;6.556;2023-05-07T14:36:04;23.00;6.60
8565;DHT22;4320;51.498;6.556;2023-05-07T14:38:30;23.10;6.60
8565;DHT22;4320;51.498;6.556;2023-05-07T14:40:58;23.00;6.70
8565;DHT22;4320;51.498;6.556;2023-05-07T14:43:23;23.10;6.70
8565;DHT22;4320;51.498;6.556;2023-05-07T14:45:49;23.10;6.60
8565;DHT22;4320;51.498;6.556;2023-05-07T14:48:15;23.00;6.70
8565;DHT22;4320;51.498;6.556;2023-05-07T14:50:46;23.10;6.60
8565;DHT22;4320;51.498;6.556;2023-05-07T14:53:11;23.00;6.60
8565;DHT22;4320;51.498;6.556;2023-05-07T14:55:37;22.90;6.50
8565;DHT22;4320;51.498;6.556;2023-05-07T14:58:04;22.60;6.40
8565;DHT22;4320;51.498;6.556;2023-05-07T15:00:29;22.40;6.10
8565;DHT22;4320;51.498;6.556;2023-05-07T15:03:04;22.20;6.10
8565;DHT22;4320;51.498;6.556;2023-05-07T15:05:30;22.20;6.00
8565;DHT22;4320;51.498;6.556;2023-05-07T15:07:55;22.00;5.80
8565;DHT22;4320;51.498;6.556;2023-05-07T15:10:21;21.90;5.80
8565;DHT22;4320;51.498;6.556;2023-05-07T15:12:47;21.80;5.70
8565;DHT22;4320;51.498;6.556;2023-05-07T15:15:12;21.80;11.90
8565;DHT22;4320;51.498;6.556;2023-05-07T15:17:38;21.70;15.90
8565;DHT22;4320;51.498;6.556;2023-05-07T15:20:04;21.70;15.40
8565;DHT22;4320;51.498;6.556;2023-05-07T15:22:30;21.60;16.80
8565;DHT22;4320;51.498;6.556;2023-05-07T15:24:55;21.60;16.70
8565;DHT22;4320;51.498;6.556;2023-05-07T15:27:22;21.60;18.10
8565;DHT22;4320;51.498;6.556;2023-05-07T15:29:48;21.50;19.90
8565;DHT22;4320;51.498;6.556;2023-05-07T15:32:13;21.50;21.40
8565;DHT22;4320;51.498;6.556;2023-05-07T15:34:39;21.50;22.30
8565;DHT22;4320;51.498;6.556;2023-05-07T15:37:04;21.50;22.90
8565;DHT22;4320;51.498;6.556;2023-05-07T15:39:31;21.40;26.10
8565;DHT22;4320;51.498;6.556;2023-05-07T15:41:56;21.50;31.10
8565;DHT22;4320;51.498;6.556;2023-05-07T15:44:22;21.40;38.40
8565;DHT22;4320;51.498;6.556;2023-05-07T15:46:47;21.50;37.10
8565;DHT22;4320;51.498;6.556;2023-05-07T15:49:13;21.50;38.80
8565;DHT22;4320;51.498;6.556;2023-05-07T15:51:39;21.50;40.70
8565;DHT22;4320;51.498;6.556;2023-05-07T15:54:04;21.50;46.20
8565;DHT22;4320;51.498;6.556;2023-05-07T15:56:30;21.50;51.40
8565;DHT22;4320;51.498;6.556;2023-05-07T15:58:58;21.50;53.40
8565;DHT22;4320;51.498;6.556;2023-05-07T16:01:24;21.50;55.90
8565;DHT22;4320;51.498;6.556;2023-05-07T16:03:50;21.50;56.90
8565;DHT22;4320;51.498;6.556;2023-05-07T16:06:15;21.50;60.40
8565;DHT22;4320;51.498;6.556;2023-05-07T16:08:42;21.50;63.70
8565;DHT22;4320;51.498;6.556;2023-05-07T16:11:09;21.40;63.70